createdAt,value
2023-05-24T00:00:37.190Z,53.80
2023-05-24T00:03:05.092Z,53.70
2023-05-24T00:05:32.351Z,53.70
2023-05-24T00:08:00.422Z,53.90
2023-05-24T00:10:27.611Z,53.70
2023-05-24T00:12:54.660Z,53.50
2023-05-24T00:15:21.991Z,53.50
2023-05-24T00:17:49.135Z,53.40
2023-05-24T00:20:16.250Z,53.10
2023-05-24T00:22:43.407Z,53.20
2023-05-24T00:25:11.486Z,52.90
2023-05-24T00:27:38.528Z,53.20
2023-05-24T00:30:06.915Z,53.00
2023-05-24T00:32:34.360Z,52.90
2023-05-24T00:35:01.379Z,53.10
2023-05-24T00:37:29.636Z,53.20
2023-05-24T00:39:56.701Z,53.30
2023-05-24T00:42:24.086Z,53.10
2023-05-24T00:44:51.095Z,53.00
2023-05-24T00:47:18.159Z,53.00
2023-05-24T00:49:46.889Z,53.10
2023-05-24T00:52:14.203Z,53.00
2023-05-24T00:54:41.317Z,52.80
2023-05-24T00:57:08.596Z,52.60
2023-05-24T00:59:36.146Z,52.40
2023-05-24T01:02:05.080Z,52.20
2023-05-24T01:04:33.255Z,52.00
2023-05-24T01:07:08.183Z,52.10
2023-05-24T01:10:15.764Z,52.00
2023-05-24T01:13:05.973Z,51.90
2023-05-24T01:15:38.797Z,51.60
2023-05-24T01:18:11.776Z,51.60
2023-05-24T01:20:41.210Z,51.60
2023-05-24T01:23:46.193Z,51.40
2023-05-24T01:27:08.193Z,51.60
2023-05-24T01:29:36.384Z,51.40
2023-05-24T01:32:03.926Z,51.50
2023-05-24T01:34:31.182Z,51.60
2023-05-24T01:36:58.368Z,51.70
2023-05-24T01:39:29.641Z,51.80
2023-05-24T01:42:16.445Z,51.90
2023-05-24T01:45:00.093Z,51.90
2023-05-24T01:48:04.396Z,51.80
2023-05-24T01:50:36.030Z,51.80
2023-05-24T01:53:06.648Z,51.90
2023-05-24T01:55:35.728Z,52.00
2023-05-24T01:58:05.123Z,52.20
2023-05-24T02:00:35.279Z,52.30
2023-05-24T02:03:03.520Z,52.50
2023-05-24T02:05:32.910Z,52.60
2023-05-24T02:08:00.043Z,52.80
2023-05-24T02:10:27.181Z,52.80
2023-05-24T02:12:54.567Z,52.80
2023-05-24T02:15:22.313Z,52.70
2023-05-24T02:17:49.535Z,52.70
2023-05-24T02:20:17.495Z,52.70
2023-05-24T02:22:44.768Z,52.80
2023-05-24T02:25:11.795Z,53.00
2023-05-24T02:27:39.030Z,53.10
2023-05-24T02:30:07.253Z,52.80
2023-05-24T02:32:35.292Z,52.80
2023-05-24T02:35:02.276Z,52.70
2023-05-24T02:37:29.390Z,52.60
2023-05-24T02:39:56.461Z,52.60
2023-05-24T02:42:24.742Z,52.60
2023-05-24T02:44:52.899Z,52.60
2023-05-24T02:47:20.109Z,52.60
2023-05-24T02:49:47.137Z,52.60
2023-05-24T02:52:14.752Z,52.70
2023-05-24T02:54:41.879Z,52.60
2023-05-24T02:57:08.968Z,52.60
2023-05-24T02:59:36.432Z,52.80
2023-05-24T03:02:03.680Z,52.60
2023-05-24T03:04:30.726Z,52.80
2023-05-24T03:06:57.871Z,52.70
2023-05-24T03:09:24.955Z,52.70
2023-05-24T03:11:54.545Z,52.80
2023-05-24T03:14:24.051Z,52.70
2023-05-24T03:16:51.967Z,52.70
2023-05-24T03:19:18.967Z,52.70
2023-05-24T03:21:46.168Z,52.60
2023-05-24T03:24:14.788Z,52.70
2023-05-24T03:26:42.962Z,52.80
2023-05-24T03:29:10.280Z,52.70
2023-05-24T03:31:40.776Z,52.80
2023-05-24T03:34:08.100Z,52.80
2023-05-24T03:36:36.705Z,52.70
2023-05-24T03:39:04.746Z,52.80
2023-05-24T03:41:38.709Z,52.80
2023-05-24T03:44:05.814Z,52.70
2023-05-24T03:46:32.932Z,52.70
2023-05-24T03:49:01.131Z,52.60
2023-05-24T03:51:29.849Z,52.70
2023-05-24T03:53:57.688Z,52.70
2023-05-24T03:56:27.432Z,52.80
2023-05-24T03:58:54.530Z,52.70
2023-05-24T04:01:32.767Z,52.60
2023-05-24T04:04:01.753Z,52.50
2023-05-24T04:06:29.911Z,52.60
2023-05-24T04:08:59.890Z,52.80
2023-05-24T04:11:29.914Z,52.80
2023-05-24T04:13:58.260Z,52.60
2023-05-24T04:16:26.570Z,52.70
2023-05-24T04:18:55.366Z,52.60
2023-05-24T04:21:23.264Z,52.60
2023-05-24T04:23:50.382Z,52.60
2023-05-24T04:26:17.919Z,52.50
2023-05-24T04:28:48.708Z,52.40
2023-05-24T04:31:16.666Z,52.50
2023-05-24T04:33:44.018Z,52.60
2023-05-24T04:36:11.815Z,52.60
2023-05-24T04:38:39.750Z,52.60
2023-05-24T04:41:07.077Z,52.80
2023-05-24T04:43:35.285Z,52.60
2023-05-24T04:46:03.051Z,52.60
2023-05-24T04:48:30.215Z,52.60
2023-05-24T04:51:00.902Z,52.60
2023-05-24T04:53:29.243Z,52.50
2023-05-24T04:55:56.455Z,52.10
2023-05-24T04:58:23.417Z,52.30
2023-05-24T05:00:50.904Z,52.20
2023-05-24T05:03:18.475Z,52.10
2023-05-24T05:05:46.629Z,52.10
2023-05-24T05:08:14.228Z,52.30
2023-05-24T05:10:41.634Z,52.60
2023-05-24T05:13:08.704Z,52.70
2023-05-24T05:15:35.720Z,52.80
2023-05-24T05:18:02.724Z,53.00
2023-05-24T05:20:29.821Z,53.10
2023-05-24T05:22:57.762Z,53.20
2023-05-24T05:25:25.255Z,53.20
2023-05-24T05:27:52.239Z,53.20
2023-05-24T05:30:19.388Z,53.30
2023-05-24T05:32:46.747Z,53.30
2023-05-24T05:35:14.844Z,53.30
2023-05-24T05:37:42.214Z,53.20
2023-05-24T05:40:09.990Z,53.20
2023-05-24T05:42:37.126Z,53.10
2023-05-24T05:45:04.456Z,53.20
2023-05-24T05:47:31.475Z,53.40
2023-05-24T05:49:58.512Z,53.60
2023-05-24T05:52:25.631Z,53.70
2023-05-24T05:54:52.703Z,53.20
2023-05-24T05:57:24.995Z,53.20
2023-05-24T05:59:52.400Z,53.10
2023-05-24T06:02:19.546Z,53.10
2023-05-24T06:04:47.255Z,53.30
2023-05-24T06:07:14.471Z,53.30
2023-05-24T06:09:41.851Z,53.20
2023-05-24T06:12:09.006Z,53.30
2023-05-24T06:14:38.508Z,53.30
2023-05-24T06:17:06.937Z,53.10
2023-05-24T06:19:34.268Z,52.90
2023-05-24T06:22:01.797Z,52.40
2023-05-24T06:24:28.835Z,52.40
2023-05-24T06:26:56.060Z,52.30
2023-05-24T06:29:25.187Z,52.30
2023-05-24T06:31:52.502Z,52.20
2023-05-24T06:34:23.598Z,52.20
2023-05-24T06:36:53.041Z,51.80
2023-05-24T06:39:20.221Z,51.80
2023-05-24T06:41:47.584Z,51.90
2023-05-24T06:44:14.943Z,52.00
2023-05-24T06:46:42.635Z,52.00
2023-05-24T06:49:09.876Z,51.80
2023-05-24T06:51:38.145Z,50.80
2023-05-24T06:54:05.208Z,50.70
2023-05-24T06:56:32.191Z,50.60
2023-05-24T06:58:59.907Z,50.70
2023-05-24T07:01:27.817Z,50.70
2023-05-24T07:03:55.383Z,50.50
2023-05-24T07:06:22.419Z,50.50
2023-05-24T07:08:49.434Z,50.60
2023-05-24T07:11:16.673Z,50.40
2023-05-24T07:13:43.715Z,50.30
2023-05-24T07:16:11.821Z,50.30
2023-05-24T07:18:38.975Z,50.30
2023-05-24T07:21:06.037Z,49.60
2023-05-24T07:23:33.126Z,49.70
2023-05-24T07:26:00.322Z,49.30
2023-05-24T07:28:27.690Z,49.50
2023-05-24T07:30:54.708Z,49.50
2023-05-24T07:33:22.123Z,50.00
2023-05-24T07:35:52.125Z,50.20
2023-05-24T07:38:19.514Z,50.20
2023-05-24T07:40:46.616Z,50.20
2023-05-24T07:43:13.666Z,50.60
2023-05-24T07:45:41.207Z,50.40
2023-05-24T07:48:08.404Z,50.10
2023-05-24T07:50:36.282Z,50.30
2023-05-24T07:53:03.224Z,50.10
2023-05-24T07:55:30.251Z,50.60
2023-05-24T07:57:57.307Z,50.70
2023-05-24T08:00:25.408Z,50.60
2023-05-24T08:02:52.575Z,50.60
2023-05-24T08:05:19.662Z,50.70
2023-05-24T08:07:46.708Z,50.60
2023-05-24T08:10:14.134Z,51.40
2023-05-24T08:12:41.831Z,50.70
2023-05-24T08:15:09.387Z,50.20
2023-05-24T08:17:37.129Z,50.20
2023-05-24T08:20:10.106Z,50.00
2023-05-24T08:22:37.846Z,49.40
2023-05-24T08:25:06.347Z,49.50
2023-05-24T08:27:33.760Z,49.30
2023-05-24T08:30:00.873Z,48.80
2023-05-24T08:32:27.903Z,47.80
2023-05-24T08:35:03.545Z,47.50
2023-05-24T08:37:38.045Z,47.20
2023-05-24T08:40:07.437Z,47.00
2023-05-24T08:42:34.912Z,47.00
2023-05-24T08:45:09.737Z,47.10
2023-05-24T08:47:38.244Z,46.60
2023-05-24T08:50:06.833Z,45.90
2023-05-24T08:52:37.197Z,46.10
2023-05-24T08:55:05.815Z,45.30
2023-05-24T08:57:35.055Z,45.60
2023-05-24T09:00:02.280Z,45.90
2023-05-24T09:02:30.381Z,45.60
2023-05-24T09:04:58.593Z,45.80
2023-05-24T09:07:26.530Z,45.50
2023-05-24T09:10:05.976Z,45.70
2023-05-24T09:12:38.232Z,45.70
2023-05-24T09:15:08.623Z,44.40
2023-05-24T09:17:37.426Z,44.30
2023-05-24T09:20:11.236Z,44.70
2023-05-24T09:22:42.614Z,45.00
2023-05-24T09:25:13.464Z,45.40
2023-05-24T09:27:40.957Z,45.20
2023-05-24T09:30:12.802Z,45.20
2023-05-24T09:32:40.264Z,45.20
2023-05-24T09:35:10.725Z,44.70
2023-05-24T09:37:39.085Z,44.70
2023-05-24T09:40:11.030Z,44.60
2023-05-24T09:42:38.580Z,44.10
2023-05-24T09:45:09.753Z,43.60
2023-05-24T09:47:39.518Z,42.80
2023-05-24T09:50:17.524Z,42.00
2023-05-24T09:52:45.480Z,41.60
2023-05-24T09:55:23.662Z,41.30
2023-05-24T09:57:53.406Z,41.70
2023-05-24T10:00:25.121Z,42.00
2023-05-24T10:03:03.108Z,42.00
2023-05-24T10:05:31.346Z,41.00
2023-05-24T10:07:59.550Z,40.20
2023-05-24T10:10:31.510Z,39.50
2023-05-24T10:13:00.545Z,38.80
2023-05-24T10:15:28.346Z,38.90
2023-05-24T10:17:56.768Z,37.80
2023-05-24T10:20:24.874Z,37.50
2023-05-24T10:22:59.322Z,38.10
2023-05-24T10:25:29.331Z,37.20
2023-05-24T10:28:03.508Z,37.40
2023-05-24T10:30:52.503Z,37.00
2023-05-24T10:33:22.577Z,36.80
2023-05-24T10:35:50.247Z,37.10
2023-05-24T10:38:19.583Z,37.60
2023-05-24T10:40:46.635Z,36.90
2023-05-24T10:43:13.912Z,36.10
2023-05-24T10:45:42.052Z,36.20
2023-05-24T10:48:29.400Z,35.40
2023-05-24T10:50:56.771Z,36.00
2023-05-24T10:53:27.463Z,36.30
2023-05-24T10:56:06.442Z,36.30
2023-05-24T10:58:54.679Z,36.80
2023-05-24T11:01:31.426Z,36.50
2023-05-24T11:04:08.859Z,36.40
2023-05-24T11:06:46.992Z,35.00
2023-05-24T11:09:15.518Z,35.20
2023-05-24T11:11:46.397Z,35.40
2023-05-24T11:14:14.816Z,34.30
2023-05-24T11:16:46.188Z,34.80
2023-05-24T11:19:20.514Z,35.00
2023-05-24T11:21:51.167Z,34.80
2023-05-24T11:24:19.823Z,34.90
2023-05-24T11:26:47.560Z,34.50
2023-05-24T11:29:17.821Z,34.30
2023-05-24T11:32:05.826Z,35.10
2023-05-24T11:34:33.879Z,35.70
2023-05-24T11:37:03.095Z,35.60
2023-05-24T11:39:35.578Z,36.10
2023-05-24T11:42:07.184Z,36.10
2023-05-24T11:44:38.238Z,35.90
2023-05-24T11:47:07.685Z,36.00
2023-05-24T11:49:34.889Z,35.80
2023-05-24T11:52:02.846Z,36.10
2023-05-24T11:54:32.780Z,35.90
2023-05-24T11:57:00.484Z,36.20
2023-05-24T11:59:29.273Z,36.30
2023-05-24T12:02:00.467Z,36.20
2023-05-24T12:04:29.212Z,36.40
2023-05-24T12:06:56.478Z,35.90
2023-05-24T12:09:23.810Z,35.60
2023-05-24T12:11:52.272Z,34.90
2023-05-24T12:14:24.547Z,34.50
2023-05-24T12:16:54.142Z,35.00
2023-05-24T12:21:59.184Z,34.90
2023-05-24T12:24:27.714Z,34.90
2023-05-24T12:27:01.863Z,33.80
2023-05-24T12:29:42.608Z,33.20
2023-05-24T12:32:14.032Z,34.10
2023-05-24T12:34:43.788Z,34.90
2023-05-24T12:37:15.400Z,35.10
2023-05-24T12:39:44.003Z,34.90
2023-05-24T12:42:13.375Z,34.80
2023-05-24T12:44:41.104Z,34.10
2023-05-24T12:47:09.199Z,34.10
2023-05-24T12:49:37.238Z,34.00
2023-05-24T12:52:04.843Z,34.20
2023-05-24T12:54:31.891Z,34.40
2023-05-24T12:57:00.530Z,34.40
2023-05-24T12:59:28.860Z,34.10
2023-05-24T13:01:57.226Z,34.10
2023-05-24T13:04:26.495Z,34.40
2023-05-24T13:06:53.811Z,34.70
2023-05-24T13:09:22.582Z,34.90
2023-05-24T13:11:50.983Z,34.40
2023-05-24T13:14:20.058Z,34.10
2023-05-24T13:16:48.022Z,33.70
2023-05-24T13:19:15.285Z,34.10
2023-05-24T13:21:42.811Z,34.30
2023-05-24T13:24:10.060Z,34.80
2023-05-24T13:26:38.420Z,35.00
2023-05-24T13:29:32.340Z,33.50
2023-05-24T13:31:56.573Z,33.50
2023-05-24T13:34:27.246Z,33.50
2023-05-24T13:36:54.959Z,34.10
2023-05-24T13:39:22.647Z,34.10
2023-05-24T13:41:49.938Z,34.60
2023-05-24T13:44:17.333Z,33.80
2023-05-24T13:46:45.010Z,34.20
2023-05-24T13:49:12.397Z,34.30
2023-05-24T13:51:39.723Z,34.80
2023-05-24T13:54:08.206Z,35.00
2023-05-24T13:56:35.959Z,34.90
2023-05-24T13:59:04.650Z,34.90
2023-05-24T14:01:33.913Z,34.30
2023-05-24T14:04:02.899Z,34.10
2023-05-24T14:06:30.309Z,33.90
2023-05-24T14:08:58.379Z,33.70
2023-05-24T14:11:26.885Z,33.90
2023-05-24T14:16:25.127Z,33.40
2023-05-24T14:18:53.201Z,33.40
2023-05-24T14:21:25.926Z,33.40
2023-05-24T14:23:53.156Z,33.40
2023-05-24T14:26:25.075Z,33.80
2023-05-24T14:28:55.957Z,33.50
2023-05-24T14:31:23.876Z,33.80
2023-05-24T14:33:51.010Z,33.30
2023-05-24T14:36:19.110Z,33.50
2023-05-24T14:38:46.768Z,33.40
2023-05-24T14:41:13.829Z,33.60
2023-05-24T14:43:42.019Z,33.50
2023-05-24T14:46:09.723Z,33.20
2023-05-24T14:48:37.404Z,33.00
2023-05-24T14:51:04.491Z,33.30
2023-05-24T14:53:31.705Z,33.50
2023-05-24T14:55:58.876Z,33.80
2023-05-24T14:58:27.301Z,33.80
2023-05-24T15:00:54.511Z,33.90
2023-05-24T15:03:21.554Z,34.00
2023-05-24T15:05:49.113Z,34.30
2023-05-24T15:08:16.160Z,34.50
2023-05-24T15:10:46.681Z,34.80
2023-05-24T15:13:13.894Z,34.70
2023-05-24T15:15:42.098Z,35.00
2023-05-24T15:18:09.688Z,34.60
2023-05-24T15:20:37.145Z,34.50
2023-05-24T15:23:04.688Z,34.60
2023-05-24T15:25:31.659Z,34.20
2023-05-24T15:27:58.847Z,34.30
2023-05-24T15:30:25.975Z,34.60
2023-05-24T15:32:53.765Z,34.60
2023-05-24T15:35:21.094Z,34.20
2023-05-24T15:37:48.173Z,34.50
2023-05-24T15:40:16.245Z,34.50
2023-05-24T15:42:43.372Z,33.90
2023-05-24T15:45:11.248Z,34.20
2023-05-24T15:47:40.561Z,34.40
2023-05-24T15:50:09.891Z,34.40
2023-05-24T15:52:37.164Z,34.60
2023-05-24T15:55:04.820Z,34.60
2023-05-24T15:57:32.341Z,34.60
2023-05-24T15:59:59.506Z,34.70
2023-05-24T16:02:27.024Z,34.80
2023-05-24T16:04:57.350Z,34.60
2023-05-24T16:07:24.621Z,34.50
2023-05-24T16:09:52.407Z,34.70
2023-05-24T16:12:20.171Z,34.60
2023-05-24T16:14:47.280Z,34.70
2023-05-24T16:17:17.590Z,34.40
2023-05-24T16:19:47.228Z,34.30
2023-05-24T16:22:14.388Z,34.30
2023-05-24T16:24:41.987Z,34.60
2023-05-24T16:27:10.189Z,34.80
2023-05-24T16:29:37.827Z,34.90
2023-05-24T16:32:05.012Z,35.10
2023-05-24T16:34:38.888Z,35.20
2023-05-24T16:37:13.285Z,35.20
2023-05-24T16:39:40.722Z,35.00
2023-05-24T16:42:08.504Z,35.00
2023-05-24T16:44:35.783Z,35.00
2023-05-24T16:47:02.923Z,35.00
2023-05-24T16:49:29.945Z,35.10
2023-05-24T16:51:56.964Z,35.10
2023-05-24T16:54:24.108Z,35.20
2023-05-24T16:56:54.950Z,35.40
2023-05-24T16:59:23.140Z,35.60
2023-05-24T17:01:51.675Z,35.70
2023-05-24T17:04:19.141Z,35.60
2023-05-24T17:06:46.155Z,35.60
2023-05-24T17:09:13.239Z,35.80
2023-05-24T17:11:40.266Z,35.90
2023-05-24T17:14:08.453Z,36.10
2023-05-24T17:16:36.254Z,36.20
2023-05-24T17:19:03.679Z,36.20
2023-05-24T17:21:31.572Z,36.20
2023-05-24T17:23:59.817Z,36.40
2023-05-24T17:26:27.654Z,36.40
2023-05-24T17:28:57.578Z,36.50
2023-05-24T17:31:25.231Z,36.60
2023-05-24T17:34:00.973Z,36.60
2023-05-24T17:36:28.040Z,36.70
2023-05-24T17:38:55.120Z,36.80
2023-05-24T17:41:22.307Z,36.80
2023-05-24T17:43:49.444Z,36.80
2023-05-24T17:46:17.620Z,36.80
2023-05-24T17:48:45.970Z,36.80
2023-05-24T17:51:13.425Z,36.80
2023-05-24T17:53:43.281Z,36.90
2023-05-24T17:56:10.443Z,37.10
2023-05-24T17:58:38.613Z,37.30
2023-05-24T18:01:12.734Z,37.40
2023-05-24T18:03:43.140Z,37.40
2023-05-24T18:06:10.506Z,37.40
2023-05-24T18:08:41.051Z,37.50
2023-05-24T18:11:08.575Z,37.70
2023-05-24T18:13:39.273Z,37.90
2023-05-24T18:16:07.238Z,38.00
2023-05-24T18:18:34.753Z,38.00
2023-05-24T18:21:01.808Z,38.20
2023-05-24T18:23:30.403Z,38.30
2023-05-24T18:26:00.429Z,38.50
2023-05-24T18:28:28.885Z,38.60
2023-05-24T18:30:56.461Z,38.80
2023-05-24T18:33:23.605Z,38.80
2023-05-24T18:35:50.867Z,39.10
2023-05-24T18:38:17.768Z,39.20
2023-05-24T18:40:44.812Z,39.30
2023-05-24T18:43:13.294Z,39.40
2023-05-24T18:45:40.404Z,39.50
2023-05-24T18:48:08.098Z,39.70
2023-05-24T18:50:35.080Z,40.50
2023-05-24T18:53:02.188Z,40.00
2023-05-24T18:55:29.309Z,40.00
2023-05-24T18:57:58.157Z,40.20
2023-05-24T19:00:25.727Z,40.20
2023-05-24T19:02:53.611Z,40.50
2023-05-24T19:05:21.137Z,40.70
2023-05-24T19:07:48.424Z,40.70
2023-05-24T19:10:15.363Z,40.90
2023-05-24T19:12:42.453Z,41.10
2023-05-24T19:15:10.253Z,41.40
2023-05-24T19:17:37.400Z,41.40
2023-05-24T19:20:04.643Z,41.60
2023-05-24T19:22:31.718Z,41.80
2023-05-24T19:24:58.767Z,41.90
2023-05-24T19:27:25.890Z,42.00
2023-05-24T19:29:52.991Z,42.30
2023-05-24T19:32:22.871Z,42.50
2023-05-24T19:34:49.825Z,42.80
2023-05-24T19:37:17.042Z,43.20
2023-05-24T19:39:44.244Z,43.20
2023-05-24T19:42:14.425Z,43.20
2023-05-24T19:44:42.475Z,43.40
2023-05-24T19:47:09.626Z,43.50
2023-05-24T19:49:36.631Z,43.60
2023-05-24T19:52:03.693Z,43.80
2023-05-24T19:54:30.624Z,44.00
2023-05-24T19:56:58.532Z,44.30
2023-05-24T19:59:25.551Z,44.40
2023-05-24T20:01:52.796Z,44.50
2023-05-24T20:04:20.089Z,44.80
2023-05-24T20:06:47.147Z,45.00
2023-05-24T20:09:18.763Z,45.20
2023-05-24T20:11:46.331Z,45.30
2023-05-24T20:14:13.305Z,45.40
2023-05-24T20:16:40.514Z,45.50
2023-05-24T20:19:07.750Z,45.70
2023-05-24T20:21:34.818Z,45.80
2023-05-24T20:24:01.937Z,45.90
2023-05-24T20:26:28.871Z,46.10
2023-05-24T20:28:55.972Z,46.30
2023-05-24T20:31:22.941Z,46.40
2023-05-24T20:33:51.656Z,46.60
2023-05-24T20:36:18.800Z,46.80
2023-05-24T20:38:45.928Z,47.20
2023-05-24T20:41:12.863Z,47.40
2023-05-24T20:43:39.997Z,47.40
2023-05-24T20:46:07.238Z,47.60
2023-05-24T20:48:34.490Z,47.70
2023-05-24T20:51:01.514Z,47.80
2023-05-24T20:53:30.060Z,47.90
2023-05-24T20:55:57.970Z,48.20
2023-05-24T20:58:24.991Z,48.20
2023-05-24T21:00:52.908Z,48.30
2023-05-24T21:03:20.278Z,48.40
2023-05-24T21:05:47.356Z,48.50
2023-05-24T21:08:14.473Z,48.60
2023-05-24T21:10:41.645Z,48.70
2023-05-24T21:13:08.585Z,48.80
2023-05-24T21:15:35.922Z,48.80
2023-05-24T21:18:06.064Z,48.80
2023-05-24T21:20:33.200Z,49.10
2023-05-24T21:23:00.701Z,49.10
2023-05-24T21:25:27.751Z,49.10
2023-05-24T21:27:54.714Z,49.20
2023-05-24T21:30:21.769Z,49.30
2023-05-24T21:32:48.703Z,49.30
2023-05-24T21:35:16.190Z,49.50
2023-05-24T21:37:43.120Z,49.50
2023-05-24T21:40:10.810Z,49.70
2023-05-24T21:42:38.003Z,49.80
2023-05-24T21:45:05.443Z,49.80
2023-05-24T21:47:33.323Z,50.00
2023-05-24T21:50:00.520Z,50.10
2023-05-24T21:52:28.056Z,50.10
2023-05-24T21:54:55.631Z,50.30
2023-05-24T21:57:26.258Z,50.30
2023-05-24T21:59:53.608Z,50.40
2023-05-24T22:02:21.657Z,50.50
2023-05-24T22:04:49.452Z,50.60
2023-05-24T22:07:16.477Z,50.80
2023-05-24T22:09:43.463Z,50.70
2023-05-24T22:12:10.628Z,50.70
2023-05-24T22:14:37.882Z,50.80
2023-05-24T22:17:05.120Z,50.90
2023-05-24T22:22:03.627Z,50.90
2023-05-24T22:24:32.000Z,51.00
2023-05-24T22:27:01.215Z,51.10
2023-05-24T22:29:28.656Z,51.10
2023-05-24T22:31:55.809Z,51.10
2023-05-24T22:34:29.507Z,51.10
2023-05-24T22:36:57.765Z,51.10
2023-05-24T22:39:24.991Z,51.10
2023-05-24T22:41:53.707Z,51.10
2023-05-24T22:44:20.886Z,51.10
2023-05-24T22:46:53.998Z,51.20
2023-05-24T22:49:21.504Z,51.30
2023-05-24T22:51:50.899Z,51.30
2023-05-24T22:54:18.195Z,51.40
2023-05-24T22:56:46.506Z,51.50
2023-05-24T22:59:13.568Z,51.60
2023-05-24T23:01:40.828Z,51.60
2023-05-24T23:04:20.311Z,51.50
2023-05-24T23:06:49.061Z,51.50
2023-05-24T23:09:17.759Z,51.70
2023-05-24T23:11:46.226Z,51.70
2023-05-24T23:14:14.357Z,51.90
2023-05-24T23:16:45.957Z,51.90
2023-05-24T23:19:18.602Z,52.10
2023-05-24T23:21:46.278Z,52.00
2023-05-24T23:24:16.127Z,52.00
2023-05-24T23:26:43.458Z,52.10
2023-05-24T23:29:10.670Z,52.00
2023-05-24T23:31:37.868Z,52.00
2023-05-24T23:34:05.591Z,51.90
2023-05-24T23:36:32.681Z,52.00
2023-05-24T23:38:59.788Z,52.00
2023-05-24T23:41:27.353Z,51.90
2023-05-24T23:43:54.389Z,52.00
2023-05-24T23:46:21.493Z,52.00
2023-05-24T23:48:48.469Z,52.00
2023-05-24T23:51:15.593Z,52.00
2023-05-24T23:53:42.628Z,52.00
2023-05-24T23:56:09.585Z,52.10
2023-05-24T23:58:37.714Z,52.20
